createdAt,value
2023-08-08T00:03:27.247Z,18.35
2023-08-08T00:08:30.457Z,18.26
2023-08-08T00:13:33.353Z,17.00
2023-08-08T00:18:36.121Z,18.40
2023-08-08T00:23:38.951Z,17.04
2023-08-08T00:28:41.777Z,16.94
2023-08-08T00:33:44.609Z,17.45
2023-08-08T00:38:47.348Z,16.01
2023-08-08T00:43:51.447Z,16.90
2023-08-08T00:48:54.453Z,18.01
2023-08-08T00:53:57.374Z,16.50
2023-08-08T00:59:00.195Z,15.84
2023-08-08T01:04:03.334Z,17.33
2023-08-08T01:09:30.031Z,16.22
2023-08-08T01:14:35.270Z,15.24
2023-08-08T01:19:38.657Z,16.04
2023-08-08T01:24:42.299Z,16.07
2023-08-08T01:29:45.136Z,15.23
2023-08-08T01:34:48.290Z,15.61
2023-08-08T01:39:52.111Z,16.15
2023-08-08T01:44:56.745Z,15.22
2023-08-08T01:49:59.595Z,16.63
2023-08-08T01:55:02.792Z,17.01
2023-08-08T02:00:07.029Z,15.50
2023-08-08T02:05:09.976Z,15.78
2023-08-08T02:10:12.782Z,16.59
2023-08-08T02:15:15.657Z,15.07
2023-08-08T02:20:19.372Z,16.45
2023-08-08T02:25:22.293Z,15.89
2023-08-08T02:30:25.194Z,15.29
2023-08-08T02:35:28.284Z,16.04
2023-08-08T02:40:31.166Z,14.97
2023-08-08T02:45:34.085Z,16.32
2023-08-08T02:50:36.859Z,15.28
2023-08-08T02:55:39.736Z,16.07
2023-08-08T03:00:42.549Z,16.19
2023-08-08T03:05:47.166Z,15.08
2023-08-08T03:10:50.930Z,16.32
2023-08-08T03:15:53.848Z,15.04
2023-08-08T03:20:56.979Z,16.09
2023-08-08T03:25:59.813Z,15.58
2023-08-08T03:31:04.510Z,15.19
2023-08-08T03:36:07.730Z,16.63
2023-08-08T03:41:10.970Z,15.38
2023-08-08T03:46:13.951Z,16.62
2023-08-08T03:51:16.715Z,15.22
2023-08-08T03:56:19.593Z,16.17
2023-08-08T04:01:22.635Z,16.08
2023-08-08T04:06:25.641Z,15.72
2023-08-08T04:11:28.619Z,17.34
2023-08-08T04:16:31.393Z,15.83
2023-08-08T04:21:34.322Z,16.12
2023-08-08T04:26:37.060Z,16.97
2023-08-08T04:31:39.981Z,15.71
2023-08-08T04:36:42.825Z,17.74
2023-08-08T04:41:45.564Z,16.59
2023-08-08T04:46:48.616Z,15.75
2023-08-08T04:51:51.551Z,17.77
2023-08-08T04:56:54.377Z,16.45
2023-08-08T05:01:57.326Z,15.99
2023-08-08T05:07:00.187Z,17.54
2023-08-08T05:12:03.644Z,16.31
2023-08-08T05:17:07.379Z,17.43
2023-08-08T05:22:10.449Z,17.48
2023-08-08T05:27:13.289Z,16.37
2023-08-08T05:32:16.069Z,16.49
2023-08-08T05:37:18.984Z,18.32
2023-08-08T05:42:21.962Z,17.03
2023-08-08T05:47:24.972Z,16.33
2023-08-08T05:52:27.887Z,17.71
2023-08-08T05:57:30.767Z,17.53
2023-08-08T06:02:33.657Z,16.80
2023-08-08T06:07:36.611Z,16.48
2023-08-08T06:12:39.544Z,16.36
2023-08-08T06:17:42.658Z,16.32
2023-08-08T06:22:45.679Z,16.24
2023-08-08T06:27:50.258Z,16.08
2023-08-08T06:32:53.379Z,16.10
2023-08-08T06:37:56.382Z,16.45
2023-08-08T06:42:59.391Z,16.57
2023-08-08T06:48:02.413Z,16.54
2023-08-08T06:53:06.025Z,16.37
2023-08-08T06:58:09.047Z,16.38
2023-08-08T07:03:12.331Z,16.40
2023-08-08T07:08:16.553Z,16.43
2023-08-08T07:13:19.559Z,16.63
2023-08-08T07:18:22.869Z,16.95
2023-08-08T07:23:28.193Z,17.35
2023-08-08T07:28:45.637Z,17.62
2023-08-08T07:33:48.596Z,17.74
2023-08-08T07:38:51.569Z,17.74
2023-08-08T07:43:54.649Z,17.74
2023-08-08T07:49:00.368Z,17.73
2023-08-08T07:54:03.620Z,17.74
2023-08-08T07:59:07.514Z,17.66
2023-08-08T08:04:10.485Z,17.55
2023-08-08T08:09:14.074Z,17.62
2023-08-08T08:14:17.084Z,17.83
2023-08-08T08:19:21.012Z,18.06
2023-08-08T08:24:24.635Z,17.94
2023-08-08T08:29:27.611Z,17.80
2023-08-08T08:34:30.493Z,17.74
2023-08-08T08:39:33.358Z,17.94
2023-08-08T08:44:37.051Z,17.93
2023-08-08T08:49:40.504Z,17.96
2023-08-08T08:54:43.883Z,18.21
2023-08-08T08:59:46.853Z,18.01
2023-08-08T09:04:49.888Z,17.90
2023-08-08T09:09:52.756Z,17.83
2023-08-08T09:14:57.776Z,18.01
2023-08-08T09:20:01.220Z,18.24
2023-08-08T09:25:05.097Z,18.32
2023-08-08T09:30:10.168Z,18.63
2023-08-08T09:35:13.465Z,19.03
2023-08-08T09:40:18.664Z,19.43
2023-08-08T09:45:24.893Z,19.50
2023-08-08T09:50:29.811Z,19.75
2023-08-08T09:55:34.094Z,19.77
2023-08-08T10:00:37.484Z,19.42
2023-08-08T10:05:40.702Z,19.43
2023-08-08T10:10:49.514Z,19.67
2023-08-08T10:15:53.812Z,19.71
2023-08-08T10:20:59.056Z,19.33
2023-08-08T10:26:03.814Z,18.95
2023-08-08T10:31:09.748Z,19.11
2023-08-08T10:36:14.624Z,19.46
2023-08-08T10:41:19.892Z,19.87
2023-08-08T10:46:34.933Z,19.83
2023-08-08T10:51:40.151Z,19.81
2023-08-08T10:56:52.966Z,19.90
2023-08-08T11:01:58.126Z,20.04
2023-08-08T11:07:02.052Z,20.09
2023-08-08T11:12:06.066Z,20.18
2023-08-08T11:17:09.021Z,20.18
2023-08-08T11:22:14.979Z,20.21
2023-08-08T11:27:42.559Z,20.37
2023-08-08T11:32:40.869Z,20.54
2023-08-08T11:37:47.756Z,20.29
2023-08-08T11:42:52.726Z,20.07
2023-08-08T11:48:04.833Z,20.02
2023-08-08T11:53:08.996Z,20.19
2023-08-08T11:58:16.118Z,20.45
2023-08-08T12:03:21.907Z,20.59
2023-08-08T12:08:27.379Z,20.80
2023-08-08T12:13:32.821Z,21.00
2023-08-08T12:18:39.068Z,21.28
2023-08-08T12:23:42.141Z,21.49
2023-08-08T12:28:45.610Z,21.81
2023-08-08T12:33:50.080Z,21.84
2023-08-08T12:38:53.091Z,21.61
2023-08-08T12:43:56.563Z,21.56
2023-08-08T12:48:59.371Z,21.62
2023-08-08T12:54:02.245Z,21.62
2023-08-08T12:59:05.335Z,21.43
2023-08-08T13:09:14.117Z,21.37
2023-08-08T13:14:17.568Z,21.40
2023-08-08T13:19:22.541Z,21.32
2023-08-08T13:24:25.406Z,21.51
2023-08-08T13:29:28.440Z,21.81
2023-08-08T13:34:31.439Z,21.63
2023-08-08T13:39:34.463Z,21.05
2023-08-08T13:44:38.684Z,19.39
2023-08-08T13:49:45.743Z,17.65
2023-08-08T13:54:50.408Z,18.44
2023-08-08T13:59:54.544Z,21.22
2023-08-08T14:04:57.756Z,20.09
2023-08-08T14:10:01.168Z,18.84
2023-08-08T14:15:07.927Z,20.08
2023-08-08T14:20:12.602Z,21.49
2023-08-08T14:25:16.475Z,20.72
2023-08-08T14:30:19.620Z,21.62
2023-08-08T14:35:22.700Z,22.82
2023-08-08T14:40:25.694Z,22.31
2023-08-08T14:45:29.319Z,21.74
2023-08-08T14:50:33.299Z,20.93
2023-08-08T14:55:36.198Z,20.08
2023-08-08T15:00:39.052Z,19.44
2023-08-08T15:05:42.318Z,18.99
2023-08-08T15:10:45.971Z,18.63
2023-08-08T15:15:49.108Z,18.52
2023-08-08T15:20:52.681Z,18.79
2023-08-08T15:25:56.528Z,20.66
2023-08-08T15:30:59.494Z,23.68
2023-08-08T15:36:02.386Z,24.02
2023-08-08T15:41:05.234Z,24.16
2023-08-08T15:46:09.455Z,23.41
2023-08-08T15:51:12.338Z,22.29
2023-08-08T15:56:15.250Z,21.12
2023-08-08T16:01:18.203Z,20.29
2023-08-08T16:06:21.141Z,19.68
2023-08-08T16:11:24.006Z,19.29
2023-08-08T16:16:26.955Z,19.10
2023-08-08T16:21:29.919Z,19.38
2023-08-08T16:26:33.111Z,20.44
2023-08-08T16:31:36.171Z,20.84
2023-08-08T16:36:41.240Z,20.69
2023-08-08T16:41:44.646Z,20.54
2023-08-08T16:46:48.373Z,20.29
2023-08-08T16:51:51.645Z,20.13
2023-08-08T16:56:56.870Z,20.86
2023-08-08T17:02:05.681Z,22.33
2023-08-08T17:07:11.804Z,23.81
2023-08-08T17:12:20.757Z,25.06
2023-08-08T17:17:27.305Z,25.76
2023-08-08T17:22:31.188Z,26.40
2023-08-08T17:27:36.997Z,26.60
2023-08-08T17:32:45.790Z,26.34
2023-08-08T17:37:49.357Z,25.13
2023-08-08T17:42:52.231Z,23.57
2023-08-08T17:47:55.141Z,22.04
2023-08-08T17:52:58.336Z,20.74
2023-08-08T17:58:01.177Z,19.73
2023-08-08T18:03:04.435Z,18.78
2023-08-08T18:08:07.501Z,17.95
2023-08-08T18:13:10.373Z,17.30
2023-08-08T18:18:13.306Z,16.80
2023-08-08T18:23:16.161Z,16.39
2023-08-08T18:28:19.945Z,16.04
2023-08-08T18:33:22.989Z,15.71
2023-08-08T18:38:25.865Z,15.43
2023-08-08T18:43:29.255Z,15.21
2023-08-08T18:48:32.759Z,15.04
2023-08-08T18:53:36.571Z,14.93
2023-08-08T18:58:39.935Z,14.86
2023-08-08T19:03:42.989Z,15.90
2023-08-08T19:08:46.213Z,19.30
2023-08-08T19:13:49.807Z,19.92
2023-08-08T19:18:54.335Z,18.31
2023-08-08T19:23:59.174Z,17.41
2023-08-08T19:29:04.068Z,16.79
2023-08-08T19:34:07.908Z,16.33
2023-08-08T19:39:11.137Z,16.01
2023-08-08T19:44:13.909Z,15.74
2023-08-08T19:49:16.790Z,15.70
2023-08-08T19:54:19.645Z,18.38
2023-08-08T19:59:22.691Z,18.17
2023-08-08T20:04:25.596Z,16.96
2023-08-08T20:09:28.363Z,16.28
2023-08-08T20:14:32.249Z,16.36
2023-08-08T20:19:35.247Z,19.27
2023-08-08T20:24:38.109Z,18.81
2023-08-08T20:29:40.886Z,17.40
2023-08-08T20:34:43.773Z,16.59
2023-08-08T20:39:47.556Z,16.07
2023-08-08T20:44:50.887Z,17.12
2023-08-08T20:50:01.432Z,19.96
2023-08-08T20:55:06.216Z,18.93
2023-08-08T21:00:11.707Z,17.48
2023-08-08T21:05:19.165Z,16.63
2023-08-08T21:10:23.032Z,15.98
2023-08-08T21:15:26.765Z,15.73
2023-08-08T21:20:32.089Z,18.55
2023-08-08T21:25:35.662Z,19.40
2023-08-08T21:30:43.211Z,17.57
2023-08-08T21:35:50.506Z,16.46
2023-08-08T21:40:53.928Z,16.93
2023-08-08T21:45:56.828Z,18.41
2023-08-08T21:50:59.772Z,16.93
2023-08-08T21:56:02.666Z,15.95
2023-08-08T22:01:06.637Z,17.05
2023-08-08T22:06:09.620Z,19.29
2023-08-08T22:11:12.598Z,17.70
2023-08-08T22:16:15.684Z,16.58
2023-08-08T22:21:18.642Z,18.63
2023-08-08T22:26:21.551Z,18.24
2023-08-08T22:31:24.669Z,16.79
2023-08-08T22:36:28.222Z,15.95
2023-08-08T22:41:31.074Z,17.55
2023-08-08T22:46:34.544Z,17.90
2023-08-08T22:51:44.721Z,16.48
2023-08-08T22:56:49.104Z,17.08
2023-08-08T23:01:53.140Z,18.67
2023-08-08T23:06:56.117Z,16.88
2023-08-08T23:11:58.925Z,16.45
2023-08-08T23:17:02.085Z,18.35
2023-08-08T23:22:05.689Z,17.19
2023-08-08T23:27:08.527Z,16.06
2023-08-08T23:32:11.430Z,16.91
2023-08-08T23:37:20.792Z,18.14
2023-08-08T23:42:24.165Z,16.50
2023-08-08T23:47:27.065Z,17.93
2023-08-08T23:52:29.858Z,18.00
2023-08-08T23:57:32.756Z,16.28
